createdAt,value
2023-05-22T00:02:48.624Z,15.05
2023-05-22T00:05:58.952Z,14.97
2023-05-22T00:09:01.439Z,15.04
2023-05-22T00:12:04.211Z,15.07
2023-05-22T00:15:07.319Z,14.90
2023-05-22T00:18:10.104Z,14.85
2023-05-22T00:21:12.751Z,14.90
2023-05-22T00:24:15.826Z,14.81
2023-05-22T00:27:18.338Z,14.75
2023-05-22T00:30:24.042Z,14.64
2023-05-22T00:33:26.997Z,14.56
2023-05-22T00:36:29.725Z,14.56
2023-05-22T00:39:32.064Z,14.56
2023-05-22T00:42:34.749Z,14.43
2023-05-22T00:45:37.117Z,14.47
2023-05-22T00:48:40.189Z,14.44
2023-05-22T00:51:42.767Z,14.38
2023-05-22T00:54:46.006Z,14.31
2023-05-22T00:57:48.696Z,14.26
2023-05-22T01:00:51.574Z,14.21
2023-05-22T01:03:55.820Z,14.18
2023-05-22T01:07:01.833Z,14.16
2023-05-22T01:10:06.129Z,14.04
2023-05-22T01:13:40.135Z,13.93
2023-05-22T01:17:22.877Z,13.82
2023-05-22T01:20:31.725Z,13.77
2023-05-22T01:24:01.945Z,13.79
2023-05-22T01:27:37.386Z,13.76
2023-05-22T01:31:00.937Z,13.75
2023-05-22T01:34:05.133Z,13.68
2023-05-22T01:37:12.253Z,13.69
2023-05-22T01:40:15.474Z,13.71
2023-05-22T01:43:18.025Z,13.73
2023-05-22T01:46:24.038Z,13.74
2023-05-22T01:49:28.397Z,13.79
2023-05-22T01:52:46.691Z,13.82
2023-05-22T01:56:01.035Z,13.82
2023-05-22T01:59:32.033Z,13.87
2023-05-22T02:02:39.470Z,13.90
2023-05-22T02:05:46.287Z,13.88
2023-05-22T02:08:50.576Z,13.86
2023-05-22T02:11:53.688Z,13.84
2023-05-22T02:14:56.552Z,13.82
2023-05-22T02:18:03.377Z,13.80
2023-05-22T02:21:08.717Z,13.78
2023-05-22T02:24:12.096Z,13.82
2023-05-22T02:27:15.078Z,13.82
2023-05-22T02:30:17.892Z,13.80
2023-05-22T02:33:20.837Z,13.78
2023-05-22T02:36:26.325Z,13.78
2023-05-22T02:39:29.745Z,13.77
2023-05-22T02:42:32.447Z,13.74
2023-05-22T02:45:35.197Z,13.76
2023-05-22T02:48:40.774Z,13.77
2023-05-22T02:51:47.613Z,13.77
2023-05-22T02:54:50.475Z,13.82
2023-05-22T02:57:52.988Z,13.77
2023-05-22T03:00:55.785Z,13.74
2023-05-22T03:03:58.436Z,13.66
2023-05-22T03:07:01.892Z,13.66
2023-05-22T03:10:05.140Z,13.61
2023-05-22T03:13:08.864Z,13.66
2023-05-22T03:16:11.709Z,13.68
2023-05-22T03:19:17.073Z,13.70
2023-05-22T03:22:19.707Z,13.67
2023-05-22T03:25:23.128Z,13.64
2023-05-22T03:28:26.919Z,13.61
2023-05-22T03:31:31.596Z,13.69
2023-05-22T03:34:34.436Z,13.70
2023-05-22T03:37:37.579Z,13.74
2023-05-22T03:40:40.762Z,13.80
2023-05-22T03:43:45.179Z,13.87
2023-05-22T03:46:48.362Z,13.93
2023-05-22T03:49:53.596Z,13.99
2023-05-22T03:52:57.505Z,14.11
2023-05-22T03:56:00.422Z,14.19
2023-05-22T03:59:03.090Z,14.27
2023-05-22T04:02:06.035Z,14.34
2023-05-22T04:05:10.295Z,14.46
2023-05-22T04:08:13.123Z,14.55
2023-05-22T04:11:16.210Z,14.59
2023-05-22T04:14:18.791Z,14.70
2023-05-22T04:17:22.148Z,14.85
2023-05-22T04:20:24.812Z,14.93
2023-05-22T04:23:27.530Z,15.06
2023-05-22T04:26:32.153Z,15.16
2023-05-22T04:29:38.264Z,15.22
2023-05-22T04:32:41.020Z,15.33
2023-05-22T04:35:44.375Z,15.44
2023-05-22T04:38:47.734Z,15.56
2023-05-22T04:41:51.798Z,15.67
2023-05-22T04:44:58.346Z,15.77
2023-05-22T04:48:02.948Z,15.92
2023-05-22T04:51:06.806Z,16.01
2023-05-22T04:54:11.678Z,16.16
2023-05-22T04:57:15.142Z,16.24
2023-05-22T05:00:18.922Z,16.37
2023-05-22T05:03:22.860Z,16.46
2023-05-22T05:06:26.277Z,16.54
2023-05-22T05:09:28.859Z,16.62
2023-05-22T05:12:31.748Z,16.70
2023-05-22T05:15:34.288Z,16.78
2023-05-22T05:18:38.330Z,16.85
2023-05-22T05:21:41.083Z,17.00
2023-05-22T05:24:43.825Z,17.14
2023-05-22T05:27:46.680Z,17.25
2023-05-22T05:30:50.137Z,17.35
2023-05-22T05:33:53.089Z,17.43
2023-05-22T05:36:57.414Z,17.71
2023-05-22T05:40:01.017Z,17.79
2023-05-22T05:43:10.106Z,18.06
2023-05-22T05:46:14.989Z,18.34
2023-05-22T05:49:19.798Z,18.58
2023-05-22T05:52:22.551Z,19.05
2023-05-22T05:55:25.605Z,19.62
2023-05-22T05:58:37.965Z,20.11
2023-05-22T06:01:45.969Z,20.70
2023-05-22T06:04:49.304Z,21.51
2023-05-22T06:07:53.051Z,22.06
2023-05-22T06:10:56.146Z,22.61
2023-05-22T06:14:03.336Z,22.92
2023-05-22T06:17:09.232Z,22.49
2023-05-22T06:20:14.314Z,22.92
2023-05-22T06:23:18.048Z,23.20
2023-05-22T06:26:24.541Z,23.64
2023-05-22T06:29:27.524Z,23.60
2023-05-22T06:32:31.543Z,23.71
2023-05-22T06:35:36.812Z,24.33
2023-05-22T06:38:40.931Z,24.83
2023-05-22T06:41:47.864Z,25.13
2023-05-22T06:44:51.973Z,25.03
2023-05-22T06:47:55.660Z,25.07
2023-05-22T06:50:58.403Z,24.65
2023-05-22T06:54:07.427Z,25.36
2023-05-22T06:57:11.300Z,24.73
2023-05-22T07:00:14.851Z,24.23
2023-05-22T07:03:19.985Z,24.22
2023-05-22T07:06:24.774Z,23.56
2023-05-22T07:09:27.385Z,23.97
2023-05-22T07:12:31.345Z,24.49
2023-05-22T07:15:34.404Z,25.28
2023-05-22T07:18:38.442Z,25.40
2023-05-22T07:21:41.705Z,25.02
2023-05-22T07:24:47.599Z,25.62
2023-05-22T07:27:51.092Z,27.32
2023-05-22T07:30:54.319Z,27.34
2023-05-22T07:33:56.876Z,26.76
2023-05-22T07:37:02.654Z,27.21
2023-05-22T07:40:10.002Z,27.33
2023-05-22T07:43:15.425Z,27.40
2023-05-22T07:46:18.113Z,28.40
2023-05-22T07:49:23.470Z,29.35
2023-05-22T07:52:26.072Z,30.30
2023-05-22T07:55:28.855Z,30.93
2023-05-22T07:58:31.586Z,29.79
2023-05-22T08:01:37.552Z,31.12
2023-05-22T08:04:40.824Z,31.73
2023-05-22T08:07:43.367Z,33.36
2023-05-22T08:11:02.566Z,33.21
2023-05-22T08:14:06.598Z,33.61
2023-05-22T08:17:09.576Z,33.01
2023-05-22T08:20:13.286Z,33.37
2023-05-22T08:23:16.182Z,32.52
2023-05-22T08:26:18.640Z,34.57
2023-05-22T08:29:21.456Z,34.89
2023-05-22T08:32:23.953Z,36.35
2023-05-22T08:35:27.063Z,35.88
2023-05-22T08:38:29.713Z,35.71
2023-05-22T08:41:32.631Z,35.97
2023-05-22T08:44:40.771Z,36.08
2023-05-22T08:47:44.655Z,37.88
2023-05-22T08:50:49.770Z,35.88
2023-05-22T08:53:56.606Z,35.89
2023-05-22T08:56:59.307Z,35.36
2023-05-22T09:00:02.225Z,36.81
2023-05-22T09:03:06.888Z,34.60
2023-05-22T09:06:11.212Z,35.27
2023-05-22T09:09:16.134Z,36.86
2023-05-22T09:12:21.641Z,34.64
2023-05-22T09:15:30.279Z,34.23
2023-05-22T09:18:33.202Z,36.10
2023-05-22T09:21:37.655Z,34.21
2023-05-22T09:24:45.106Z,35.02
2023-05-22T09:27:49.512Z,34.73
2023-05-22T09:30:54.000Z,35.13
2023-05-22T09:33:56.782Z,34.92
2023-05-22T09:37:03.461Z,36.57
2023-05-22T09:40:07.975Z,36.57
2023-05-22T09:43:11.595Z,35.34
2023-05-22T09:46:16.639Z,36.38
2023-05-22T09:49:19.449Z,34.69
2023-05-22T09:52:22.995Z,34.66
2023-05-22T09:55:27.400Z,33.85
2023-05-22T09:58:33.696Z,34.26
2023-05-22T10:01:39.051Z,36.25
2023-05-22T10:04:42.596Z,36.17
2023-05-22T10:07:53.467Z,35.23
2023-05-22T10:10:59.995Z,37.86
2023-05-22T10:14:05.170Z,38.37
2023-05-22T10:17:11.444Z,38.22
2023-05-22T10:20:15.347Z,38.94
2023-05-22T10:23:19.141Z,39.43
2023-05-22T10:26:23.219Z,39.10
2023-05-22T10:29:33.841Z,39.23
2023-05-22T10:32:44.104Z,37.58
2023-05-22T10:35:53.394Z,36.20
2023-05-22T10:38:55.867Z,36.25
2023-05-22T10:41:58.853Z,33.39
2023-05-22T10:45:01.950Z,31.08
2023-05-22T10:48:11.871Z,30.71
2023-05-22T10:51:20.439Z,30.58
2023-05-22T10:54:59.953Z,29.10
2023-05-22T10:58:13.260Z,28.18
2023-05-22T11:01:17.523Z,28.67
2023-05-22T11:04:25.820Z,28.98
2023-05-22T11:07:42.412Z,28.66
2023-05-22T11:10:56.300Z,31.06
2023-05-22T11:14:05.216Z,29.85
2023-05-22T11:17:08.024Z,28.56
2023-05-22T11:20:21.164Z,29.02
2023-05-22T11:23:25.686Z,32.63
2023-05-22T11:26:28.500Z,34.49
2023-05-22T11:29:33.597Z,32.81
2023-05-22T11:32:37.861Z,31.75
2023-05-22T11:35:41.370Z,30.85
2023-05-22T11:38:44.491Z,30.28
2023-05-22T11:41:50.002Z,29.65
2023-05-22T11:44:52.921Z,30.01
2023-05-22T11:47:55.907Z,33.35
2023-05-22T11:50:59.176Z,33.76
2023-05-22T11:54:01.750Z,32.83
2023-05-22T11:57:09.210Z,35.44
2023-05-22T12:00:12.271Z,35.82
2023-05-22T12:03:14.622Z,37.46
2023-05-22T12:06:18.286Z,39.18
2023-05-22T12:09:20.767Z,38.88
2023-05-22T12:12:23.935Z,35.32
2023-05-22T12:15:27.066Z,35.13
2023-05-22T12:18:37.568Z,36.12
2023-05-22T12:21:44.985Z,37.54
2023-05-22T12:24:52.603Z,38.18
2023-05-22T12:27:55.397Z,39.24
2023-05-22T12:30:58.049Z,39.60
2023-05-22T12:34:04.412Z,38.53
2023-05-22T12:37:30.032Z,38.13
2023-05-22T12:40:32.508Z,39.04
2023-05-22T12:43:35.732Z,36.78
2023-05-22T12:46:38.546Z,33.18
2023-05-22T12:49:41.377Z,32.18
2023-05-22T12:52:43.840Z,33.75
2023-05-22T12:55:46.707Z,34.03
2023-05-22T12:58:52.202Z,36.01
2023-05-22T13:02:02.349Z,36.75
2023-05-22T13:05:08.510Z,37.80
2023-05-22T13:08:11.522Z,37.93
2023-05-22T13:11:14.300Z,37.87
2023-05-22T13:14:17.577Z,36.67
2023-05-22T13:17:20.087Z,37.73
2023-05-22T13:20:25.449Z,37.53
2023-05-22T13:23:27.971Z,37.91
2023-05-22T13:26:30.811Z,38.68
2023-05-22T13:29:34.785Z,38.60
2023-05-22T13:32:37.858Z,37.95
2023-05-22T13:35:40.643Z,35.86
2023-05-22T13:38:43.596Z,35.01
2023-05-22T13:41:46.540Z,35.87
2023-05-22T13:44:49.793Z,37.53
2023-05-22T13:47:52.373Z,37.67
2023-05-22T13:51:03.410Z,37.17
2023-05-22T13:54:06.104Z,36.53
2023-05-22T13:57:09.010Z,37.32
2023-05-22T14:00:17.025Z,37.29
2023-05-22T14:03:20.451Z,36.97
2023-05-22T14:06:23.563Z,37.51
2023-05-22T14:09:26.558Z,36.14
2023-05-22T14:12:29.204Z,36.38
2023-05-22T14:15:32.477Z,36.57
2023-05-22T14:18:40.360Z,36.51
2023-05-22T14:21:43.002Z,36.82
2023-05-22T14:24:45.461Z,36.26
2023-05-22T14:27:48.139Z,36.12
2023-05-22T14:30:50.652Z,36.13
2023-05-22T14:33:53.335Z,35.49
2023-05-22T14:36:58.598Z,35.99
2023-05-22T14:40:04.335Z,35.38
2023-05-22T14:43:11.594Z,35.11
2023-05-22T14:46:14.791Z,34.50
2023-05-22T14:49:20.511Z,34.44
2023-05-22T14:52:26.416Z,33.98
2023-05-22T14:55:31.884Z,32.76
2023-05-22T14:58:34.798Z,32.60
2023-05-22T15:01:38.849Z,32.87
2023-05-22T15:04:42.104Z,32.11
2023-05-22T15:07:46.708Z,32.28
2023-05-22T15:10:50.881Z,31.33
2023-05-22T15:13:56.404Z,30.48
2023-05-22T15:17:00.001Z,30.05
2023-05-22T15:20:02.443Z,30.08
2023-05-22T15:23:05.755Z,29.31
2023-05-22T15:26:08.271Z,28.10
2023-05-22T15:29:11.045Z,27.41
2023-05-22T15:32:16.395Z,26.59
2023-05-22T15:35:19.537Z,26.35
2023-05-22T15:38:22.077Z,26.27
2023-05-22T15:41:25.995Z,26.16
2023-05-22T15:44:28.703Z,25.81
2023-05-22T15:47:31.718Z,25.55
2023-05-22T15:50:34.722Z,24.96
2023-05-22T15:53:41.150Z,25.03
2023-05-22T15:56:44.178Z,24.72
2023-05-22T15:59:50.805Z,24.83
2023-05-22T16:02:53.781Z,24.93
2023-05-22T16:05:56.734Z,24.93
2023-05-22T16:08:59.248Z,25.07
2023-05-22T16:12:02.996Z,25.11
2023-05-22T16:15:06.828Z,24.91
2023-05-22T16:18:12.422Z,24.58
2023-05-22T16:21:14.820Z,24.54
2023-05-22T16:24:17.615Z,24.27
2023-05-22T16:27:20.187Z,24.07
2023-05-22T16:30:23.424Z,24.09
2023-05-22T16:33:25.991Z,24.02
2023-05-22T16:36:29.050Z,23.80
2023-05-22T16:39:31.619Z,23.65
2023-05-22T16:42:35.413Z,23.56
2023-05-22T16:45:46.575Z,23.53
2023-05-22T16:48:52.177Z,23.27
2023-05-22T16:51:54.550Z,22.94
2023-05-22T16:54:57.227Z,22.77
2023-05-22T16:58:00.181Z,22.84
2023-05-22T17:01:03.019Z,22.83
2023-05-22T17:04:05.716Z,22.70
2023-05-22T17:07:08.539Z,22.70
2023-05-22T17:10:11.586Z,22.59
2023-05-22T17:13:20.914Z,22.63
2023-05-22T17:16:23.477Z,22.67
2023-05-22T17:19:26.667Z,22.55
2023-05-22T17:22:29.088Z,22.73
2023-05-22T17:25:32.046Z,22.69
2023-05-22T17:28:34.728Z,22.72
2023-05-22T17:31:39.290Z,22.66
2023-05-22T17:34:42.110Z,22.66
2023-05-22T17:37:44.850Z,22.68
2023-05-22T17:40:47.683Z,22.70
2023-05-22T17:44:00.171Z,22.63
2023-05-22T17:47:04.070Z,22.56
2023-05-22T17:50:07.380Z,22.63
2023-05-22T17:53:09.703Z,22.51
2023-05-22T17:56:12.394Z,22.46
2023-05-22T17:59:14.783Z,22.45
2023-05-22T18:02:17.978Z,22.43
2023-05-22T18:05:20.901Z,22.40
2023-05-22T18:08:23.409Z,22.28
2023-05-22T18:11:26.274Z,22.25
2023-05-22T18:14:28.916Z,22.19
2023-05-22T18:17:32.636Z,22.13
2023-05-22T18:20:38.276Z,22.12
2023-05-22T18:23:40.973Z,22.05
2023-05-22T18:26:46.500Z,22.04
2023-05-22T18:29:52.397Z,22.02
2023-05-22T18:32:54.775Z,21.91
2023-05-22T18:35:57.838Z,21.90
2023-05-22T18:39:00.272Z,21.86
2023-05-22T18:42:02.939Z,21.85
2023-05-22T18:45:07.203Z,21.83
2023-05-22T18:48:09.953Z,21.81
2023-05-22T18:51:13.420Z,21.78
2023-05-22T18:54:16.150Z,21.76
2023-05-22T18:57:18.622Z,21.73
2023-05-22T19:00:23.766Z,21.65
2023-05-22T19:03:26.944Z,21.61
2023-05-22T19:06:30.575Z,21.53
2023-05-22T19:09:32.948Z,21.43
2023-05-22T19:12:35.733Z,21.34
2023-05-22T19:15:38.557Z,21.20
2023-05-22T19:18:41.556Z,21.08
2023-05-22T19:21:43.917Z,20.92
2023-05-22T19:24:46.679Z,20.84
2023-05-22T19:27:49.269Z,20.77
2023-05-22T19:30:53.273Z,20.68
2023-05-22T19:33:55.985Z,20.61
2023-05-22T19:36:58.739Z,20.50
2023-05-22T19:40:01.282Z,20.41
2023-05-22T19:43:05.056Z,20.34
2023-05-22T19:46:09.009Z,20.25
2023-05-22T19:49:11.996Z,20.27
2023-05-22T19:52:14.377Z,20.17
2023-05-22T19:55:17.032Z,20.04
2023-05-22T19:58:19.905Z,19.81
2023-05-22T20:01:23.110Z,19.62
2023-05-22T20:04:26.106Z,19.52
2023-05-22T20:07:28.975Z,19.32
2023-05-22T20:10:33.327Z,19.13
2023-05-22T20:13:35.963Z,18.98
2023-05-22T20:16:41.890Z,18.84
2023-05-22T20:19:45.281Z,18.79
2023-05-22T20:22:48.951Z,18.83
2023-05-22T20:25:51.591Z,18.75
2023-05-22T20:28:54.254Z,18.55
2023-05-22T20:31:56.823Z,18.47
2023-05-22T20:35:01.944Z,18.37
2023-05-22T20:38:04.309Z,18.30
2023-05-22T20:41:09.177Z,18.15
2023-05-22T20:44:12.340Z,18.07
2023-05-22T20:47:15.304Z,18.00
2023-05-22T20:50:17.710Z,17.85
2023-05-22T20:53:20.391Z,17.79
2023-05-22T20:56:22.889Z,17.72
2023-05-22T20:59:25.806Z,17.63
2023-05-22T21:02:28.250Z,17.59
2023-05-22T21:05:31.006Z,17.57
2023-05-22T21:08:33.341Z,17.44
2023-05-22T21:11:36.089Z,17.33
2023-05-22T21:14:38.494Z,17.26
2023-05-22T21:17:41.226Z,17.19
2023-05-22T21:20:43.728Z,17.14
2023-05-22T21:23:48.035Z,17.10
2023-05-22T21:26:50.377Z,17.07
2023-05-22T21:29:53.902Z,17.06
2023-05-22T21:32:56.460Z,17.01
2023-05-22T21:35:59.516Z,16.96
2023-05-22T21:39:02.497Z,16.93
2023-05-22T21:42:06.008Z,16.88
2023-05-22T21:45:08.899Z,16.84
2023-05-22T21:48:11.699Z,16.80
2023-05-22T21:51:14.969Z,16.75
2023-05-22T21:54:17.620Z,16.80
2023-05-22T21:57:20.443Z,16.77
2023-05-22T22:00:23.118Z,16.78
2023-05-22T22:03:25.947Z,16.71
2023-05-22T22:06:31.353Z,16.63
2023-05-22T22:09:34.284Z,16.52
2023-05-22T22:12:36.798Z,16.50
2023-05-22T22:15:40.004Z,16.44
2023-05-22T22:18:43.874Z,16.36
2023-05-22T22:21:46.781Z,16.34
2023-05-22T22:24:49.228Z,16.31
2023-05-22T22:27:52.720Z,16.23
2023-05-22T22:30:55.337Z,16.14
2023-05-22T22:33:58.168Z,16.07
2023-05-22T22:37:01.632Z,16.00
2023-05-22T22:40:08.115Z,15.99
2023-05-22T22:43:10.514Z,15.93
2023-05-22T22:46:13.795Z,15.90
2023-05-22T22:49:16.194Z,15.88
2023-05-22T22:52:18.905Z,15.83
2023-05-22T22:55:21.575Z,15.84
2023-05-22T22:58:24.778Z,15.83
2023-05-22T23:01:27.245Z,15.80
2023-05-22T23:04:32.077Z,15.80
2023-05-22T23:07:34.792Z,15.78
2023-05-22T23:10:37.525Z,15.77
2023-05-22T23:13:41.310Z,15.72
2023-05-22T23:16:46.341Z,15.72
2023-05-22T23:19:48.762Z,15.72
2023-05-22T23:22:51.487Z,15.69
2023-05-22T23:25:53.873Z,15.69
2023-05-22T23:28:56.587Z,15.65
2023-05-22T23:31:59.252Z,15.65
2023-05-22T23:35:02.074Z,15.64
2023-05-22T23:38:06.958Z,15.67
2023-05-22T23:41:10.497Z,15.67
2023-05-22T23:44:12.958Z,15.72
2023-05-22T23:47:16.934Z,15.65
2023-05-22T23:50:19.621Z,15.65
2023-05-22T23:53:22.286Z,15.65
2023-05-22T23:56:24.707Z,15.70
2023-05-22T23:59:27.352Z,15.70
